Time;durP1;ratioP1;P1;durP2;ratioP2;P2;SDS_P1;SDS_P2;PMS_P1;PMS_P2;Temp;Humidity;BMP_temperature;BMP_pressure;BME280_temperature;BME280_humidity;BME280_pressure;Samples;Min_cycle;Max_cycle;Signal;HPM_P1;HPM_P2
2022/08/28 00:00:11;;;;;;;;;;;;;;;21.56;71.75;101108.31;4991603;28;19930;-52
2022/08/28 00:02:37;;;;;;;;;;;;;;;21.50;72.04;101109.78;4988465;28;19926;-52
2022/08/28 00:05:03;;;;;;;;;;;;;;;21.47;72.36;101104.72;4989372;28;19925;-53
2022/08/28 00:07:29;;;;;;;;;;;;;;;21.41;72.68;101110.66;4989969;28;20037;-54
2022/08/28 00:09:54;;;;;;;;;;;;;;;21.36;72.69;101102.25;4990205;28;19934;-54
2022/08/28 00:12:19;;;;;;;;;;;;;;;21.28;72.81;101095.81;4989481;28;19932;-53
2022/08/28 00:14:44;;;;;;;;;;;;;;;21.23;73.08;101103.47;4990279;28;19929;-53
2022/08/28 00:17:10;;;;;;;;;;;;;;;21.22;73.19;101093.75;4976674;28;20499;-53
2022/08/28 00:19:35;;;;;;;;;;;;;;;21.23;73.58;101100.78;4993307;28;19940;-55
2022/08/28 00:22:00;;;;;;;;;;;;;;;21.27;73.25;101104.00;4992420;28;19921;-54
2022/08/28 00:24:26;;;;;;;;;;;;;;;21.27;73.31;101110.19;4995934;28;19940;-55
2022/08/28 00:29:35;;;;;;;;;;;;;;;21.24;73.52;101110.50;4998294;28;19977;-52
2022/08/28 00:32:01;;;;;;;;;;;;;;;21.22;73.27;101107.13;4994816;28;19933;-54
2022/08/28 00:34:27;;;;;;;;;;;;;;;21.20;73.61;101101.09;4998006;28;19925;-54
2022/08/28 00:36:53;;;;;;;;;;;;;;;21.19;73.50;101111.91;4997461;28;19918;-54
2022/08/28 00:39:18;;;;;;;;;;;;;;;21.14;73.92;101113.22;4995155;28;20380;-53
2022/08/28 00:41:43;;;;;;;;;;;;;;;21.15;73.64;101111.38;4996933;28;19926;-54
2022/08/28 00:44:12;;;;;;;;;;;;;;;21.11;73.66;101115.34;5009515;28;20005;-53
2022/08/28 00:46:37;;;;;;;;;;;;;;;21.04;73.76;101108.91;4999380;28;19922;-56
2022/08/28 00:49:04;;;;;;;;;;;;;;;21.00;74.04;101114.56;4997144;28;19921;-54
2022/08/28 00:54:13;;;;;;;;;;;;;;;20.99;74.34;101112.03;5011501;28;19947;-56
2022/08/28 00:56:39;;;;;;;;;;;;;;;20.98;74.12;101105.00;4996677;28;20297;-54
2022/08/28 00:59:07;;;;;;;;;;;;;;;20.94;74.24;101112.50;4996429;28;19924;-53
2022/08/28 01:01:33;;;;;;;;;;;;;;;20.91;74.29;101107.44;4995057;28;20309;-53
2022/08/28 01:03:59;;;;;;;;;;;;;;;20.91;74.30;101104.75;4995985;28;19922;-53
2022/08/28 01:06:24;;;;;;;;;;;;;;;20.91;74.51;101104.75;4996234;28;19929;-54
2022/08/28 01:08:52;;;;;;;;;;;;;;;20.92;74.51;101101.09;4996057;28;19931;-55
2022/08/28 01:11:18;;;;;;;;;;;;;;;20.91;74.82;101104.75;4992527;28;19953;-53
2022/08/28 01:13:47;;;;;;;;;;;;;;;20.93;74.54;101105.44;4993869;28;20429;-56
2022/08/28 01:16:16;;;;;;;;;;;;;;;20.93;74.78;101102.78;4996519;28;20566;-53
2022/08/28 01:18:42;;;;;;;;;;;;;;;20.96;74.65;101105.13;4996391;28;19918;-55
2022/08/28 01:21:28;;;;;;;;;;;;;;;20.97;74.76;101103.31;4994981;28;19921;-53
2022/08/28 01:24:15;;;;;;;;;;;;;;;20.95;74.68;101107.97;4992369;28;19918;-55
2022/08/28 01:26:40;;;;;;;;;;;;;;;20.92;74.77;101111.78;4987466;28;19933;-53
2022/08/28 01:29:07;;;;;;;;;;;;;;;20.89;74.82;101108.53;4993026;28;19926;-54
2022/08/28 01:31:33;;;;;;;;;;;;;;;20.86;74.95;101112.38;4990043;28;19922;-53
2022/08/28 01:33:59;;;;;;;;;;;;;;;20.86;74.88;101117.72;4989377;28;19922;-55
2022/08/28 01:36:25;;;;;;;;;;;;;;;20.86;74.48;101113.22;4991223;28;19980;-53
2022/08/28 01:39:00;;;;;;;;;;;;;;;20.87;74.82;101114.06;4988110;28;21291;-55
2022/08/28 01:41:25;;;;;;;;;;;;;;;20.88;74.78;101122.91;4988839;28;19917;-54
2022/08/28 01:43:52;;;;;;;;;;;;;;;20.90;74.78;101119.13;4992467;28;19929;-54
2022/08/28 01:46:18;;;;;;;;;;;;;;;20.90;74.80;101123.59;4994527;28;20304;-54
2022/08/28 01:48:43;;;;;;;;;;;;;;;20.86;74.57;101107.88;4992035;28;20032;-54
2022/08/28 01:51:09;;;;;;;;;;;;;;;20.87;74.78;101108.69;4994130;28;19925;-53
2022/08/28 01:53:35;;;;;;;;;;;;;;;20.86;74.78;101123.91;4989529;28;19941;-56
2022/08/28 01:56:01;;;;;;;;;;;;;;;20.88;74.91;101121.09;4987614;28;20360;-54
2022/08/28 01:58:27;;;;;;;;;;;;;;;20.89;74.80;101112.06;4989785;28;19960;-53
2022/08/28 02:00:52;;;;;;;;;;;;;;;20.91;74.66;101115.44;4990441;28;20247;-54
2022/08/28 02:03:18;;;;;;;;;;;;;;;20.91;74.79;101120.81;4985858;28;19929;-54
2022/08/28 02:05:44;;;;;;;;;;;;;;;20.89;74.46;101121.91;4992435;28;20456;-54
2022/08/28 02:08:10;;;;;;;;;;;;;;;20.85;74.65;101124.91;4990691;28;19925;-54
2022/08/28 02:10:36;;;;;;;;;;;;;;;20.82;74.51;101132.34;4989610;28;19921;-53
2022/08/28 02:13:02;;;;;;;;;;;;;;;20.79;74.69;101124.66;4989186;28;19933;-54
2022/08/28 02:15:28;;;;;;;;;;;;;;;20.77;74.78;101126.63;4990540;28;19924;-53
2022/08/28 02:17:54;;;;;;;;;;;;;;;20.76;74.95;101124.94;4992694;28;19929;-53
2022/08/28 02:20:21;;;;;;;;;;;;;;;20.75;74.98;101117.88;4990917;28;19933;-52
2022/08/28 02:22:46;;;;;;;;;;;;;;;20.75;74.97;101131.25;4991478;28;20419;-54
2022/08/28 02:25:12;;;;;;;;;;;;;;;20.71;74.97;101123.50;4991439;28;19921;-54
2022/08/28 02:27:38;;;;;;;;;;;;;;;20.71;75.11;101123.50;4990187;28;19944;-54
2022/08/28 02:30:04;;;;;;;;;;;;;;;20.71;74.78;101126.19;4991509;28;20049;-54
2022/08/28 02:32:30;;;;;;;;;;;;;;;20.71;74.92;101115.50;4991363;28;19921;-53
2022/08/28 02:34:55;;;;;;;;;;;;;;;20.69;75.32;101112.13;4991994;28;19932;-53
2022/08/28 02:37:23;;;;;;;;;;;;;;;20.73;75.19;101115.31;4986352;28;19950;-54
2022/08/28 02:39:48;;;;;;;;;;;;;;;20.75;75.16;101120.53;4993188;28;20403;-54
2022/08/28 02:42:14;;;;;;;;;;;;;;;20.74;74.97;101111.66;4987087;28;19925;-53
2022/08/28 02:44:40;;;;;;;;;;;;;;;20.73;75.07;101117.19;4989944;28;19925;-54
2022/08/28 02:47:06;;;;;;;;;;;;;;;20.69;75.01;101120.13;4992042;28;20854;-55
2022/08/28 02:49:31;;;;;;;;;;;;;;;20.65;75.02;101113.38;4999238;28;19917;-53
2022/08/28 02:51:57;;;;;;;;;;;;;;;20.65;75.25;101116.06;4996024;28;19972;-53
2022/08/28 02:54:22;;;;;;;;;;;;;;;20.63;75.37;101107.38;4990098;28;19925;-53
2022/08/28 02:56:48;;;;;;;;;;;;;;;20.61;75.41;101120.03;4991040;28;20406;-52
2022/08/28 02:59:13;;;;;;;;;;;;;;;20.62;75.38;101108.34;4994380;28;19922;-53
2022/08/28 03:01:39;;;;;;;;;;;;;;;20.64;75.27;101108.19;4995392;28;21490;-54
2022/08/28 03:04:04;;;;;;;;;;;;;;;20.62;75.40;101111.03;4995512;28;19921;-53
2022/08/28 03:06:30;;;;;;;;;;;;;;;20.61;75.43;101112.00;4997915;28;19921;-54
2022/08/28 03:08:56;;;;;;;;;;;;;;;20.61;75.25;101111.16;4997927;28;19975;-55
2022/08/28 03:11:22;;;;;;;;;;;;;;;20.57;75.18;101107.94;4997635;28;19917;-53
2022/08/28 03:13:47;;;;;;;;;;;;;;;20.55;75.32;101112.59;4991620;28;19932;-55
2022/08/28 03:16:13;;;;;;;;;;;;;;;20.52;75.73;101112.88;4995800;28;19928;-52
2022/08/28 03:18:38;;;;;;;;;;;;;;;20.49;75.39;101116.69;4995471;28;20397;-54
2022/08/28 03:21:04;;;;;;;;;;;;;;;20.48;75.55;101114.16;4996343;28;20015;-54
2022/08/28 03:23:30;;;;;;;;;;;;;;;20.48;75.87;101116.84;4995174;28;21176;-54
2022/08/28 03:25:58;;;;;;;;;;;;;;;20.52;75.79;101123.56;4992207;28;20301;-53
2022/08/28 03:28:24;;;;;;;;;;;;;;;20.53;75.52;101117.22;4996182;28;19925;-52
2022/08/28 03:30:50;;;;;;;;;;;;;;;20.51;75.48;101116.53;4995921;28;19918;-52
2022/08/28 03:33:15;;;;;;;;;;;;;;;20.50;75.80;101117.50;4994177;28;19936;-53
2022/08/28 03:35:40;;;;;;;;;;;;;;;20.52;75.82;101126.22;4995660;28;19922;-53
2022/08/28 03:38:06;;;;;;;;;;;;;;;20.52;75.62;101136.94;4995041;28;19957;-53
2022/08/28 03:40:31;;;;;;;;;;;;;;;20.50;75.74;101128.19;4995841;28;20281;-54
2022/08/28 03:42:57;;;;;;;;;;;;;;;20.52;75.87;101124.41;4980502;28;19980;-53
2022/08/28 03:45:22;;;;;;;;;;;;;;;20.54;75.71;101130.47;4991888;28;19936;-54
2022/08/28 03:47:47;;;;;;;;;;;;;;;20.54;75.41;101134.94;4995634;28;19979;-52
2022/08/28 03:50:13;;;;;;;;;;;;;;;20.53;75.35;101128.78;4995075;28;20019;-52
2022/08/28 03:52:39;;;;;;;;;;;;;;;20.50;75.53;101128.19;4994566;28;19965;-54
2022/08/28 03:55:07;;;;;;;;;;;;;;;20.48;75.78;101132.88;4991842;28;19936;-53
2022/08/28 03:57:33;;;;;;;;;;;;;;;20.48;75.66;101135.56;4994441;28;19932;-53
2022/08/28 03:59:58;;;;;;;;;;;;;;;20.48;75.55;101131.03;4993903;28;19922;-55
2022/08/28 04:02:23;;;;;;;;;;;;;;;20.48;75.44;101124.84;4994431;28;20393;-53
2022/08/28 04:04:49;;;;;;;;;;;;;;;20.47;75.66;101133.84;4993144;28;19922;-53
2022/08/28 04:07:15;;;;;;;;;;;;;;;20.48;75.48;101133.69;4995196;28;19921;-52
2022/08/28 04:09:40;;;;;;;;;;;;;;;20.47;75.63;101149.91;4993686;28;19926;-53
2022/08/28 04:12:07;;;;;;;;;;;;;;;20.44;75.85;101142.16;4991958;28;20000;-54
2022/08/28 04:14:32;;;;;;;;;;;;;;;20.40;75.60;101138.94;4993592;28;19926;-54
2022/08/28 04:16:57;;;;;;;;;;;;;;;20.37;75.54;101142.72;4991550;28;19921;-52
2022/08/28 04:19:23;;;;;;;;;;;;;;;20.37;75.79;101156.09;4995972;28;19917;-52
2022/08/28 04:21:48;;;;;;;;;;;;;;;20.37;75.59;101152.59;4994428;28;19921;-53
2022/08/28 04:24:13;;;;;;;;;;;;;;;20.34;75.95;101148.38;4995319;28;19921;-55
2022/08/28 04:26:39;;;;;;;;;;;;;;;20.32;75.76;101152.16;4993879;28;19961;-54
2022/08/28 04:29:05;;;;;;;;;;;;;;;20.32;76.17;101146.81;4994513;28;19925;-54
2022/08/28 04:31:30;;;;;;;;;;;;;;;20.35;76.21;101152.72;4994261;28;19936;-53
2022/08/28 04:33:57;;;;;;;;;;;;;;;20.36;76.15;101156.25;4997087;28;19925;-53
2022/08/28 04:36:22;;;;;;;;;;;;;;;20.37;76.01;101161.44;4995887;28;19952;-53
2022/08/28 04:38:47;;;;;;;;;;;;;;;20.39;76.08;101156.78;4993793;28;19926;-54
2022/08/28 04:41:14;;;;;;;;;;;;;;;20.38;75.77;101165.78;4994228;28;19988;-54
2022/08/28 04:43:39;;;;;;;;;;;;;;;20.39;75.97;101163.97;4994076;28;19925;-54
2022/08/28 04:46:06;;;;;;;;;;;;;;;20.40;75.89;101166.50;4996926;28;19928;-53
2022/08/28 04:48:31;;;;;;;;;;;;;;;20.44;75.52;101155.53;4992771;28;19961;-52
2022/08/28 04:50:57;;;;;;;;;;;;;;;20.45;75.55;101167.91;4994557;28;20025;-53
2022/08/28 04:53:23;;;;;;;;;;;;;;;20.46;75.66;101161.56;4996502;28;19925;-52
2022/08/28 04:55:49;;;;;;;;;;;;;;;20.44;75.54;101160.88;4994648;28;19917;-52
2022/08/28 04:58:15;;;;;;;;;;;;;;;20.43;75.49;101164.53;4993214;28;19917;-53
2022/08/28 05:00:42;;;;;;;;;;;;;;;20.46;75.37;101164.25;4990781;28;19927;-53
2022/08/28 05:03:10;;;;;;;;;;;;;;;20.49;75.36;101166.63;4994632;28;19922;-54
2022/08/28 05:05:39;;;;;;;;;;;;;;;20.52;75.51;101169.00;4990494;28;19921;-53
2022/08/28 05:08:05;;;;;;;;;;;;;;;20.50;75.23;101169.16;4991036;28;19929;-52
2022/08/28 05:10:30;;;;;;;;;;;;;;;20.49;75.51;101169.31;4992060;28;19929;-53
2022/08/28 05:12:58;;;;;;;;;;;;;;;20.49;75.48;101170.13;4991685;28;19943;-53
2022/08/28 05:15:24;;;;;;;;;;;;;;;20.50;75.27;101168.28;4987607;28;20768;-53
2022/08/28 05:17:49;;;;;;;;;;;;;;;20.49;75.04;101175.47;4989135;28;19921;-54
2022/08/28 05:20:14;;;;;;;;;;;;;;;20.47;75.09;101176.63;4987542;28;19925;-53
2022/08/28 05:22:40;;;;;;;;;;;;;;;20.44;75.40;101174.22;4994128;28;19944;-53
2022/08/28 05:25:05;;;;;;;;;;;;;;;20.41;75.45;101178.88;4982503;28;19928;-52
2022/08/28 05:27:30;;;;;;;;;;;;;;;20.39;75.21;101180.00;5004669;28;19933;-52
2022/08/28 05:29:56;;;;;;;;;;;;;;;20.36;75.33;101175.78;4989563;28;20000;-53
2022/08/28 05:32:21;;;;;;;;;;;;;;;20.33;75.45;101178.75;4994096;28;19936;-54
2022/08/28 05:34:46;;;;;;;;;;;;;;;20.35;75.44;101184.78;4993066;28;19951;-54
2022/08/28 05:37:13;;;;;;;;;;;;;;;20.37;74.99;101188.16;4995945;28;19924;-52
2022/08/28 05:39:38;;;;;;;;;;;;;;;20.36;75.11;101186.47;4991194;28;19965;-54
2022/08/28 05:42:04;;;;;;;;;;;;;;;20.36;74.93;101197.16;4994411;28;20021;-53
2022/08/28 05:44:29;;;;;;;;;;;;;;;20.31;75.00;101188.75;4992114;28;20538;-52
2022/08/28 05:46:55;;;;;;;;;;;;;;;20.31;75.09;101193.22;4997755;28;19926;-54
2022/08/28 05:49:20;;;;;;;;;;;;;;;20.31;74.86;101193.22;4994637;28;19928;-53
2022/08/28 05:51:46;;;;;;;;;;;;;;;20.31;74.92;101202.09;4989497;28;19934;-53
2022/08/28 05:54:11;;;;;;;;;;;;;;;20.30;74.69;101192.41;4993375;28;19917;-54
2022/08/28 05:56:37;;;;;;;;;;;;;;;20.27;74.68;101199.84;4994524;28;19926;-53
2022/08/28 05:59:04;;;;;;;;;;;;;;;20.27;75.03;101195.34;4989407;28;20052;-52
2022/08/28 06:01:31;;;;;;;;;;;;;;;20.29;74.67;101196.03;4990183;28;21205;-53
2022/08/28 06:03:57;;;;;;;;;;;;;;;20.34;74.70;101200.97;4986752;28;19961;-53
2022/08/28 06:06:23;;;;;;;;;;;;;;;20.33;74.48;101212.63;4993191;28;19936;-55
2022/08/28 06:08:59;;;;;;;;;;;;;;;20.31;74.78;101199.44;4987391;28;19929;-52
2022/08/28 06:11:24;;;;;;;;;;;;;;;20.30;74.58;101208.44;4977807;28;19980;-53
2022/08/28 06:13:50;;;;;;;;;;;;;;;20.30;74.59;101202.22;4989904;28;19975;-53
2022/08/28 06:16:15;;;;;;;;;;;;;;;20.32;74.71;101201.13;4988325;28;20300;-53
2022/08/28 06:18:41;;;;;;;;;;;;;;;20.30;74.71;101212.91;4994799;28;19926;-52
2022/08/28 06:21:06;;;;;;;;;;;;;;;20.29;74.60;101213.91;4991254;28;19922;-53
2022/08/28 06:23:32;;;;;;;;;;;;;;;20.31;74.70;101209.25;4995655;28;19928;-53
2022/08/28 06:25:58;;;;;;;;;;;;;;;20.30;74.77;101211.09;4997496;28;19969;-52
2022/08/28 06:28:24;;;;;;;;;;;;;;;20.29;74.81;101214.75;4994419;28;19926;-54
2022/08/28 06:30:51;;;;;;;;;;;;;;;20.27;74.50;101214.03;4996679;28;19918;-52
2022/08/28 06:33:16;;;;;;;;;;;;;;;20.31;74.87;101211.94;4997097;28;19922;-53
2022/08/28 06:35:43;;;;;;;;;;;;;;;20.30;74.63;101219.13;4987452;28;19932;-55
2022/08/28 06:38:09;;;;;;;;;;;;;;;20.25;74.69;101221.34;4996479;28;20028;-55
2022/08/28 06:40:41;;;;;;;;;;;;;;;20.22;74.53;101221.63;5001876;28;19999;-53
2022/08/28 06:43:07;;;;;;;;;;;;;;;20.22;74.64;101222.50;4997159;28;20150;-52
2022/08/28 06:45:32;;;;;;;;;;;;;;;20.17;74.85;101221.22;4996428;28;19944;-55
2022/08/28 06:47:58;;;;;;;;;;;;;;;20.16;74.67;101222.22;4995102;28;19986;-53
2022/08/28 06:50:23;;;;;;;;;;;;;;;20.19;75.05;101232.63;4989213;28;19921;-54
2022/08/28 06:52:48;;;;;;;;;;;;;;;20.17;74.99;101235.41;4994938;28;19922;-54
2022/08/28 06:55:14;;;;;;;;;;;;;;;20.18;74.90;101230.94;4995616;28;19932;-52
2022/08/28 06:57:39;;;;;;;;;;;;;;;20.20;74.84;101234.28;4992036;28;19925;-55
2022/08/28 07:00:05;;;;;;;;;;;;;;;20.20;74.67;101228.94;4988712;28;19965;-52
2022/08/28 07:02:30;;;;;;;;;;;;;;;20.20;74.87;101244.97;4991859;28;19936;-54
2022/08/28 07:04:55;;;;;;;;;;;;;;;20.19;74.75;101235.28;4991839;28;19921;-52
2022/08/28 07:07:20;;;;;;;;;;;;;;;20.22;74.91;101240.34;4996545;28;19933;-53
2022/08/28 07:09:46;;;;;;;;;;;;;;;20.25;74.70;101243.59;4993874;28;19925;-53
2022/08/28 07:12:15;;;;;;;;;;;;;;;20.27;74.69;101251.47;4992412;28;19932;-52
2022/08/28 07:14:40;;;;;;;;;;;;;;;20.24;74.66;101241.03;4993733;28;19921;-54
2022/08/28 07:17:06;;;;;;;;;;;;;;;20.20;74.58;101252.97;4989741;28;19929;-52
2022/08/28 07:19:32;;;;;;;;;;;;;;;20.20;74.81;101237.81;4988992;28;19929;-53
2022/08/28 07:21:57;;;;;;;;;;;;;;;20.20;74.54;101244.97;4989586;28;19952;-53
2022/08/28 07:24:23;;;;;;;;;;;;;;;20.19;74.77;101248.66;4992609;28;19917;-52
2022/08/28 07:26:48;;;;;;;;;;;;;;;20.16;74.81;101243.56;4985142;28;20317;-52
2022/08/28 07:29:18;;;;;;;;;;;;;;;20.17;74.75;101254.13;4993628;28;19925;-52
2022/08/28 07:31:46;;;;;;;;;;;;;;;20.19;74.69;101248.66;5007223;28;19976;-52
2022/08/28 07:34:12;;;;;;;;;;;;;;;20.17;74.56;101258.63;4991587;28;19925;-51
2022/08/28 07:36:38;;;;;;;;;;;;;;;20.17;74.75;101261.31;4997226;28;20008;-52
2022/08/28 07:39:04;;;;;;;;;;;;;;;20.17;74.39;101245.28;4998131;28;20389;-51
2022/08/28 07:41:31;;;;;;;;;;;;;;;20.15;74.36;101252.56;4991358;28;21205;-54
2022/08/28 07:46:44;;;;;;;;;;;;;;;20.21;74.87;101260.88;4995645;28;19937;-52
2022/08/28 07:49:10;;;;;;;;;;;;;;;20.26;74.46;101260.44;4982751;28;19930;-52
2022/08/28 07:51:43;;;;;;;;;;;;;;;20.30;74.38;101267.22;4996858;28;20383;-52
2022/08/28 07:54:08;;;;;;;;;;;;;;;20.34;74.52;101265.97;4985050;28;19921;-52
2022/08/28 07:56:39;;;;;;;;;;;;;;;20.38;74.32;101270.00;4989334;28;19936;-52
2022/08/28 07:59:29;;;;;;;;;;;;;;;20.41;74.06;101283.09;4991645;28;19922;-51
2022/08/28 08:01:54;;;;;;;;;;;;;;;20.43;74.03;101271.44;4978382;28;19922;-53
2022/08/28 08:04:20;;;;;;;;;;;;;;;20.43;74.10;101279.44;4989612;28;19933;-53
2022/08/28 08:06:46;;;;;;;;;;;;;;;20.44;73.79;101283.81;4984798;28;20426;-52
2022/08/28 08:09:13;;;;;;;;;;;;;;;20.45;74.23;101285.50;4988088;28;20343;-52
2022/08/28 08:11:38;;;;;;;;;;;;;;;20.48;74.04;101279.88;4984933;28;21991;-53
2022/08/28 08:14:04;;;;;;;;;;;;;;;20.49;73.70;101281.56;4985253;28;19930;-52
2022/08/28 08:16:32;;;;;;;;;;;;;;;20.49;73.81;101285.06;4990200;28;20016;-53
2022/08/28 08:18:57;;;;;;;;;;;;;;;20.50;73.82;101277.88;4986244;28;19922;-53
2022/08/28 08:21:23;;;;;;;;;;;;;;;20.55;73.85;101286.34;4984307;28;19960;-52
2022/08/28 08:23:48;;;;;;;;;;;;;;;20.57;73.92;101292.38;4987422;28;19922;-53
2022/08/28 08:26:16;;;;;;;;;;;;;;;20.58;73.38;101295.91;4988553;28;19952;-52
2022/08/28 08:28:42;;;;;;;;;;;;;;;20.58;73.45;101302.09;4992017;28;19933;-52
2022/08/28 08:31:15;;;;;;;;;;;;;;;20.61;73.59;101301.81;4991672;28;20147;-53
2022/08/28 08:33:42;;;;;;;;;;;;;;;20.63;73.52;101299.88;4993692;28;19932;-52
2022/08/28 08:36:08;;;;;;;;;;;;;;;20.66;73.28;101318.28;4993873;28;19936;-52
2022/08/28 08:38:34;;;;;;;;;;;;;;;20.66;73.22;101310.25;4991985;28;19918;-52
2022/08/28 08:41:00;;;;;;;;;;;;;;;20.67;73.07;101303.91;4991561;28;20361;-53
2022/08/28 08:43:27;;;;;;;;;;;;;;;20.69;72.93;101309.97;4993940;28;19926;-53
2022/08/28 08:45:53;;;;;;;;;;;;;;;20.71;72.88;101302.66;4987226;28;20028;-53
2022/08/28 08:48:24;;;;;;;;;;;;;;;20.74;73.14;101306.88;4992096;28;20714;-53
2022/08/28 08:50:49;;;;;;;;;;;;;;;20.78;72.83;101318.19;4996047;28;19925;-52
2022/08/28 08:53:22;;;;;;;;;;;;;;;20.79;72.78;101315.34;4996432;28;19933;-53
2022/08/28 08:55:49;;;;;;;;;;;;;;;20.78;72.70;101319.00;4985818;28;19996;-52
2022/08/28 08:58:30;;;;;;;;;;;;;;;20.78;72.58;101312.84;4970088;28;19960;-53
2022/08/28 09:00:56;;;;;;;;;;;;;;;20.80;72.42;101318.84;4988123;28;20088;-52
2022/08/28 09:03:24;;;;;;;;;;;;;;;20.78;72.28;101312.84;4986392;28;20356;-54
2022/08/28 09:06:01;;;;;;;;;;;;;;;20.77;71.86;101313.81;4988249;28;19932;-53
2022/08/28 09:08:30;;;;;;;;;;;;;;;20.79;72.01;101314.53;4981837;28;19980;-54
2022/08/28 09:11:05;;;;;;;;;;;;;;;20.82;71.86;101320.41;4985590;28;19943;-53
2022/08/28 09:13:43;;;;;;;;;;;;;;;20.81;71.79;101318.72;4979726;28;19925;-53
2022/08/28 09:16:21;;;;;;;;;;;;;;;20.81;71.85;101317.88;4992294;28;20008;-53
2022/08/28 09:18:49;;;;;;;;;;;;;;;20.84;71.89;101317.59;4995868;28;20695;-52
2022/08/28 09:21:24;;;;;;;;;;;;;;;20.90;71.42;101327.75;4998486;28;19980;-52
2022/08/28 09:23:54;;;;;;;;;;;;;;;20.94;71.44;101322.94;4988303;28;19925;-53
2022/08/28 09:26:23;;;;;;;;;;;;;;;20.98;71.68;101332.38;4985268;28;19926;-54
2022/08/28 09:28:59;;;;;;;;;;;;;;;21.00;71.07;101322.38;4988822;28;19926;-51
2022/08/28 09:31:30;;;;;;;;;;;;;;;21.01;71.26;101324.06;4986197;28;20628;-52
2022/08/28 09:34:14;;;;;;;;;;;;;;;21.05;70.96;101329.97;4984680;28;19937;-54
2022/08/28 09:36:40;;;;;;;;;;;;;;;21.10;70.99;101325.88;4980171;28;19934;-55
2022/08/28 09:39:17;;;;;;;;;;;;;;;21.12;70.97;101323.91;4984709;28;19982;-53
2022/08/28 09:44:48;;;;;;;;;;;;;;;21.17;70.29;101323.47;4986798;28;19929;-54
2022/08/28 09:47:33;;;;;;;;;;;;;;;21.22;70.49;101326.56;4978303;28;19925;-53
2022/08/28 09:50:18;;;;;;;;;;;;;;;21.30;70.48;101340.06;4974131;28;19925;-55
2022/08/28 09:52:43;;;;;;;;;;;;;;;21.40;70.31;101331.16;4986254;28;19921;-53
2022/08/28 09:55:11;;;;;;;;;;;;;;;21.52;69.97;101326.47;4980452;28;19921;-55
2022/08/28 09:57:38;;;;;;;;;;;;;;;21.58;69.71;101321.34;4990820;28;19925;-53
2022/08/28 10:00:04;;;;;;;;;;;;;;;21.65;69.42;101323.50;4995636;28;20472;-54
2022/08/28 10:02:58;;;;;;;;;;;;;;;21.68;69.30;101320.53;4990995;28;19929;-51
2022/08/28 10:05:44;;;;;;;;;;;;;;;21.71;68.87;101330.91;4986854;28;19925;-52
2022/08/28 10:11:03;;;;;;;;;;;;;;;21.69;68.15;101343.63;5046864;27;19967;-53
2022/08/28 10:13:32;;;;;;;;;;;;;;;21.71;67.71;101325.56;5044760;28;20018;-52
2022/08/28 10:16:15;;;;;;;;;;;;;;;21.74;68.01;101323.44;5045772;28;20305;-55
2022/08/28 10:18:59;;;;;;;;;;;;;;;21.84;67.94;101320.72;5049497;28;19921;-54
2022/08/28 10:21:44;;;;;;;;;;;;;;;21.92;67.75;101323.50;5046489;28;20000;-52
2022/08/28 10:24:09;;;;;;;;;;;;;;;21.98;67.83;101329.25;5046325;28;19924;-53
2022/08/28 10:26:34;;;;;;;;;;;;;;;22.02;67.53;101327.94;5045701;28;19921;-52
2022/08/28 10:29:03;;;;;;;;;;;;;;;22.10;67.47;101324.50;5049396;28;19936;-52
2022/08/28 10:31:35;;;;;;;;;;;;;;;22.16;67.00;101327.44;5056082;28;19931;-52
2022/08/28 10:34:19;;;;;;;;;;;;;;;22.20;66.74;101336.88;5059963;28;19925;-52
2022/08/28 10:36:50;;;;;;;;;;;;;;;22.19;66.45;101335.19;5085008;28;19955;-52
2022/08/28 10:39:41;;;;;;;;;;;;;;;22.17;66.15;101325.63;5046960;28;19920;-53
2022/08/28 10:42:06;;;;;;;;;;;;;;;22.23;66.20;101336.56;5051498;28;19970;-52
2022/08/28 10:44:32;;;;;;;;;;;;;;;22.30;65.62;101334.13;5053442;28;19924;-53
2022/08/28 10:46:57;;;;;;;;;;;;;;;22.32;65.11;101323.25;5049347;28;19928;-54
2022/08/28 10:49:25;;;;;;;;;;;;;;;22.35;64.89;101323.81;5049692;28;19928;-53
2022/08/28 10:51:56;;;;;;;;;;;;;;;22.38;64.65;101328.88;5048597;28;19946;-52
2022/08/28 10:54:31;;;;;;;;;;;;;;;22.40;64.09;101323.34;5053841;28;19946;-53
2022/08/28 10:57:17;;;;;;;;;;;;;;;22.41;63.72;101317.00;5049092;28;19917;-55
2022/08/28 10:59:45;;;;;;;;;;;;;;;22.45;63.58;101328.28;5048203;28;19917;-54
2022/08/28 11:02:13;;;;;;;;;;;;;;;22.48;63.25;101319.94;5049006;28;20883;-52
2022/08/28 11:04:39;;;;;;;;;;;;;;;22.53;63.02;101323.00;5079798;28;20760;-54
2022/08/28 11:07:06;;;;;;;;;;;;;;;22.60;63.05;101329.44;5042918;28;20864;-52
2022/08/28 11:09:36;;;;;;;;;;;;;;;22.69;62.98;101333.03;5052340;28;19982;-53
2022/08/28 11:12:08;;;;;;;;;;;;;;;22.78;62.51;101329.41;5067674;28;20538;-54
2022/08/28 11:14:39;;;;;;;;;;;;;;;22.80;62.40;101323.91;5052687;28;19963;-53
2022/08/28 11:17:24;;;;;;;;;;;;;;;22.83;62.27;101327.09;5067458;28;19924;-54
2022/08/28 11:20:01;;;;;;;;;;;;;;;22.90;61.88;101331.88;5075066;28;19927;-54
2022/08/28 11:22:35;;;;;;;;;;;;;;;22.93;61.89;101327.03;5053903;28;20499;-53
2022/08/28 11:25:00;;;;;;;;;;;;;;;22.99;61.65;101341.66;5059859;28;19932;-53
2022/08/28 11:27:32;;;;;;;;;;;;;;;23.03;60.97;101337.66;5044553;28;19925;-56
2022/08/28 11:30:03;;;;;;;;;;;;;;;23.08;60.94;101327.28;5061663;28;19928;-54
2022/08/28 11:32:31;;;;;;;;;;;;;;;23.19;60.79;101330.72;5049723;28;19971;-53
2022/08/28 11:35:00;;;;;;;;;;;;;;;23.27;60.47;101333.47;5056412;28;19924;-52
2022/08/28 11:37:37;;;;;;;;;;;;;;;23.31;60.54;101334.88;5057978;28;19916;-52
2022/08/28 11:40:15;;;;;;;;;;;;;;;23.34;60.26;101339.91;5058082;28;20415;-52
2022/08/28 11:42:40;;;;;;;;;;;;;;;23.34;60.11;101334.56;5062096;28;19928;-53
2022/08/28 11:45:16;;;;;;;;;;;;;;;23.37;60.31;101334.22;5062653;28;20414;-52
2022/08/28 11:47:46;;;;;;;;;;;;;;;23.41;59.92;101330.22;5061029;28;19953;-53
2022/08/28 11:50:19;;;;;;;;;;;;;;;23.44;58.75;101350.56;5059603;28;19933;-54
2022/08/28 11:53:03;;;;;;;;;;;;;;;23.43;58.34;101347.00;5053803;28;20933;-52
2022/08/28 11:55:53;;;;;;;;;;;;;;;23.41;58.45;101350.88;5065214;28;19947;-53
2022/08/28 11:58:24;;;;;;;;;;;;;;;23.39;58.33;101348.31;5057773;28;19924;-52
2022/08/28 12:01:02;;;;;;;;;;;;;;;23.36;58.27;101359.41;5062677;28;19927;-52
2022/08/28 12:03:58;;;;;;;;;;;;;;;23.35;58.01;101349.66;5036034;28;20022;-52
2022/08/28 12:06:42;;;;;;;;;;;;;;;23.37;58.07;101349.50;5060772;28;20066;-52
2022/08/28 12:09:07;;;;;;;;;;;;;;;23.39;57.66;101368.97;5049188;28;19924;-54
2022/08/28 12:11:39;;;;;;;;;;;;;;;23.37;57.23;101344.94;5053773;28;19921;-54
2022/08/28 12:14:19;;;;;;;;;;;;;;;23.35;57.25;101343.44;5054889;28;20407;-54
2022/08/28 12:17:00;;;;;;;;;;;;;;;23.34;57.32;101350.66;5056529;28;19924;-54
2022/08/28 12:19:27;;;;;;;;;;;;;;;23.33;57.45;101343.59;5053368;28;19928;-54
2022/08/28 12:21:53;;;;;;;;;;;;;;;23.37;57.52;101334.22;5057402;28;19928;-53
2022/08/28 12:24:20;;;;;;;;;;;;;;;23.42;57.47;101342.63;5052042;28;20898;-53
2022/08/28 12:26:48;;;;;;;;;;;;;;;23.47;57.16;101334.09;5055999;28;19932;-54
2022/08/28 12:29:20;;;;;;;;;;;;;;;23.54;56.89;101337.84;5054462;28;19924;-55
2022/08/28 12:32:10;;;;;;;;;;;;;;;23.62;57.23;101341.56;5048513;28;19927;-55
2022/08/28 12:34:35;;;;;;;;;;;;;;;23.68;56.67;101341.75;5057218;28;19920;-54
2022/08/28 12:37:01;;;;;;;;;;;;;;;23.70;56.21;101334.38;5032278;28;20414;-53
2022/08/28 12:39:27;;;;;;;;;;;;;;;23.70;56.22;101334.38;5054139;28;19925;-55
2022/08/28 12:41:53;;;;;;;;;;;;;;;23.67;55.97;101332.00;5051426;28;19959;-53
2022/08/28 12:44:23;;;;;;;;;;;;;;;23.64;55.44;101328.81;5051219;28;19924;-53
2022/08/28 12:46:48;;;;;;;;;;;;;;;23.63;55.32;101344.09;5044520;28;19929;-53
2022/08/28 12:49:28;;;;;;;;;;;;;;;23.65;54.94;101336.72;5054792;28;20324;-52
2022/08/28 12:52:06;;;;;;;;;;;;;;;23.69;54.52;101342.63;5052510;28;20388;-53
2022/08/28 12:54:31;;;;;;;;;;;;;;;23.75;53.60;101333.91;5048584;28;19924;-53